sensor_id;sensor_type;location;lat;lon;timestamp;temperature;humidity
47660;DHT22;33403;43.608;1.458;2023-07-08T00:00:39;19.30;99.90
47660;DHT22;33403;43.608;1.458;2023-07-08T00:03:04;19.20;99.90
47660;DHT22;33403;43.608;1.458;2023-07-08T00:05:30;19.20;99.90
47660;DHT22;33403;43.608;1.458;2023-07-08T00:07:55;19.20;99.90
47660;DHT22;33403;43.608;1.458;2023-07-08T00:10:24;19.10;99.90
47660;DHT22;33403;43.608;1.458;2023-07-08T00:12:52;19.10;99.90
47660;DHT22;33403;43.608;1.458;2023-07-08T00:15:24;19.20;99.90
47660;DHT22;33403;43.608;1.458;2023-07-08T00:17:50;19.20;99.90
47660;DHT22;33403;43.608;1.458;2023-07-08T00:20:36;19.10;99.90
47660;DHT22;33403;43.608;1.458;2023-07-08T00:23:03;19.10;99.90
47660;DHT22;33403;43.608;1.458;2023-07-08T00:25:30;19.20;99.90
47660;DHT22;33403;43.608;1.458;2023-07-08T00:27:57;19.20;99.90
47660;DHT22;33403;43.608;1.458;2023-07-08T00:30:28;19.10;99.90
47660;DHT22;33403;43.608;1.458;2023-07-08T00:32:54;19.10;99.90
47660;DHT22;33403;43.608;1.458;2023-07-08T00:35:30;19.20;99.90
47660;DHT22;33403;43.608;1.458;2023-07-08T00:37:57;19.20;99.90
47660;DHT22;33403;43.608;1.458;2023-07-08T00:40:31;19.20;99.90
47660;DHT22;33403;43.608;1.458;2023-07-08T00:43:00;19.20;99.90
47660;DHT22;33403;43.608;1.458;2023-07-08T00:45:43;19.20;99.90
47660;DHT22;33403;43.608;1.458;2023-07-08T00:48:34;19.20;99.90
47660;DHT22;33403;43.608;1.458;2023-07-08T00:51:00;19.20;99.90
47660;DHT22;33403;43.608;1.458;2023-07-08T00:53:34;19.20;99.90
47660;DHT22;33403;43.608;1.458;2023-07-08T00:56:02;19.20;99.90
47660;DHT22;33403;43.608;1.458;2023-07-08T00:59:19;19.20;99.90
47660;DHT22;33403;43.608;1.458;2023-07-08T01:01:19;19.10;99.90
47660;DHT22;33403;43.608;1.458;2023-07-08T01:03:49;19.10;99.90
47660;DHT22;33403;43.608;1.458;2023-07-08T01:06:17;19.10;99.90
47660;DHT22;33403;43.608;1.458;2023-07-08T01:08:43;19.20;99.90
47660;DHT22;33403;43.608;1.458;2023-07-08T01:11:09;19.20;99.90
47660;DHT22;33403;43.608;1.458;2023-07-08T01:13:39;19.20;99.90
47660;DHT22;33403;43.608;1.458;2023-07-08T01:16:06;19.20;99.90
47660;DHT22;33403;43.608;1.458;2023-07-08T01:18:33;19.20;99.90
47660;DHT22;33403;43.608;1.458;2023-07-08T01:21:04;19.20;99.90
47660;DHT22;33403;43.608;1.458;2023-07-08T01:23:33;19.20;99.90
47660;DHT22;33403;43.608;1.458;2023-07-08T01:26:00;19.20;99.90
47660;DHT22;33403;43.608;1.458;2023-07-08T01:28:27;19.20;99.90
47660;DHT22;33403;43.608;1.458;2023-07-08T01:30:53;19.30;99.90
47660;DHT22;33403;43.608;1.458;2023-07-08T01:33:21;19.30;99.90
47660;DHT22;33403;43.608;1.458;2023-07-08T01:35:51;19.30;99.90
47660;DHT22;33403;43.608;1.458;2023-07-08T01:38:21;19.30;99.90
47660;DHT22;33403;43.608;1.458;2023-07-08T01:40:51;19.30;99.90
47660;DHT22;33403;43.608;1.458;2023-07-08T01:43:16;19.30;99.90
47660;DHT22;33403;43.608;1.458;2023-07-08T01:45:42;19.30;99.90
47660;DHT22;33403;43.608;1.458;2023-07-08T01:48:11;19.30;99.90
47660;DHT22;33403;43.608;1.458;2023-07-08T01:50:40;19.30;99.90
47660;DHT22;33403;43.608;1.458;2023-07-08T01:53:13;19.30;99.90
47660;DHT22;33403;43.608;1.458;2023-07-08T01:55:39;19.40;99.90
47660;DHT22;33403;43.608;1.458;2023-07-08T01:58:05;19.40;99.90
47660;DHT22;33403;43.608;1.458;2023-07-08T02:00:31;19.40;99.90
47660;DHT22;33403;43.608;1.458;2023-07-08T02:02:56;19.40;99.90
47660;DHT22;33403;43.608;1.458;2023-07-08T02:05:23;19.40;99.90
47660;DHT22;33403;43.608;1.458;2023-07-08T02:07:49;19.50;99.90
47660;DHT22;33403;43.608;1.458;2023-07-08T02:10:15;19.40;99.90
47660;DHT22;33403;43.608;1.458;2023-07-08T02:12:40;19.50;99.90
47660;DHT22;33403;43.608;1.458;2023-07-08T02:15:07;19.50;99.90
47660;DHT22;33403;43.608;1.458;2023-07-08T02:17:33;19.50;99.90
47660;DHT22;33403;43.608;1.458;2023-07-08T02:19:59;19.50;99.90
47660;DHT22;33403;43.608;1.458;2023-07-08T02:22:24;19.50;99.90
47660;DHT22;33403;43.608;1.458;2023-07-08T02:24:50;19.50;99.90
47660;DHT22;33403;43.608;1.458;2023-07-08T02:27:16;19.50;99.90
47660;DHT22;33403;43.608;1.458;2023-07-08T02:29:42;19.60;99.90
47660;DHT22;33403;43.608;1.458;2023-07-08T02:32:08;19.60;99.90
47660;DHT22;33403;43.608;1.458;2023-07-08T02:34:35;19.60;99.90
47660;DHT22;33403;43.608;1.458;2023-07-08T02:37:01;19.60;99.90
47660;DHT22;33403;43.608;1.458;2023-07-08T02:39:27;19.60;99.90
47660;DHT22;33403;43.608;1.458;2023-07-08T02:41:52;19.60;99.90
47660;DHT22;33403;43.608;1.458;2023-07-08T02:44:18;19.60;99.90
47660;DHT22;33403;43.608;1.458;2023-07-08T02:46:44;19.60;99.90
47660;DHT22;33403;43.608;1.458;2023-07-08T02:49:09;19.60;99.90
47660;DHT22;33403;43.608;1.458;2023-07-08T02:51:35;19.60;99.90
47660;DHT22;33403;43.608;1.458;2023-07-08T02:54:00;19.60;99.90
47660;DHT22;33403;43.608;1.458;2023-07-08T02:56:26;19.70;99.90
47660;DHT22;33403;43.608;1.458;2023-07-08T02:58:52;19.70;99.90
47660;DHT22;33403;43.608;1.458;2023-07-08T03:01:18;19.80;99.90
47660;DHT22;33403;43.608;1.458;2023-07-08T03:03:45;19.80;99.90
47660;DHT22;33403;43.608;1.458;2023-07-08T03:06:11;19.80;99.90
47660;DHT22;33403;43.608;1.458;2023-07-08T03:08:37;19.80;99.90
47660;DHT22;33403;43.608;1.458;2023-07-08T03:11:05;19.80;99.90
47660;DHT22;33403;43.608;1.458;2023-07-08T03:13:32;19.90;99.90
47660;DHT22;33403;43.608;1.458;2023-07-08T03:15:59;19.90;99.90
47660;DHT22;33403;43.608;1.458;2023-07-08T03:18:26;19.90;99.90
47660;DHT22;33403;43.608;1.458;2023-07-08T03:20:52;19.90;99.90
47660;DHT22;33403;43.608;1.458;2023-07-08T03:23:18;19.90;99.90
47660;DHT22;33403;43.608;1.458;2023-07-08T03:25:44;19.90;99.90
47660;DHT22;33403;43.608;1.458;2023-07-08T03:28:10;20.00;99.90
47660;DHT22;33403;43.608;1.458;2023-07-08T03:30:44;19.90;99.90
47660;DHT22;33403;43.608;1.458;2023-07-08T03:33:10;20.00;99.90
47660;DHT22;33403;43.608;1.458;2023-07-08T03:35:37;20.00;99.90
47660;DHT22;33403;43.608;1.458;2023-07-08T03:38:04;20.00;99.90
47660;DHT22;33403;43.608;1.458;2023-07-08T03:40:31;20.00;99.90
47660;DHT22;33403;43.608;1.458;2023-07-08T03:42:56;20.00;99.90
47660;DHT22;33403;43.608;1.458;2023-07-08T03:45:22;20.00;99.90
47660;DHT22;33403;43.608;1.458;2023-07-08T03:47:48;19.90;99.90
47660;DHT22;33403;43.608;1.458;2023-07-08T03:50:22;20.00;99.90
47660;DHT22;33403;43.608;1.458;2023-07-08T03:52:49;20.00;99.90
47660;DHT22;33403;43.608;1.458;2023-07-08T03:55:16;20.00;99.90
47660;DHT22;33403;43.608;1.458;2023-07-08T03:57:41;20.00;99.90
47660;DHT22;33403;43.608;1.458;2023-07-08T04:00:08;20.00;99.90
47660;DHT22;33403;43.608;1.458;2023-07-08T04:02:44;20.00;99.90
47660;DHT22;33403;43.608;1.458;2023-07-08T04:05:14;20.00;99.90
47660;DHT22;33403;43.608;1.458;2023-07-08T04:07:41;20.00;99.90
47660;DHT22;33403;43.608;1.458;2023-07-08T04:10:07;20.00;99.90
47660;DHT22;33403;43.608;1.458;2023-07-08T04:12:33;20.00;99.90
47660;DHT22;33403;43.608;1.458;2023-07-08T04:14:59;20.00;99.90
47660;DHT22;33403;43.608;1.458;2023-07-08T04:17:24;20.00;99.90
47660;DHT22;33403;43.608;1.458;2023-07-08T04:19:51;20.00;99.90
47660;DHT22;33403;43.608;1.458;2023-07-08T04:22:16;20.00;99.90
47660;DHT22;33403;43.608;1.458;2023-07-08T04:24:42;20.00;99.90
47660;DHT22;33403;43.608;1.458;2023-07-08T04:27:14;20.00;99.90
47660;DHT22;33403;43.608;1.458;2023-07-08T04:29:40;20.00;99.90
47660;DHT22;33403;43.608;1.458;2023-07-08T04:32:06;20.00;99.90
47660;DHT22;33403;43.608;1.458;2023-07-08T04:34:32;20.00;99.90
47660;DHT22;33403;43.608;1.458;2023-07-08T04:36:58;20.00;99.90
47660;DHT22;33403;43.608;1.458;2023-07-08T04:39:23;20.00;99.90
47660;DHT22;33403;43.608;1.458;2023-07-08T04:41:49;20.00;99.90
47660;DHT22;33403;43.608;1.458;2023-07-08T04:44:15;20.00;99.90
47660;DHT22;33403;43.608;1.458;2023-07-08T04:46:54;20.00;99.90
47660;DHT22;33403;43.608;1.458;2023-07-08T04:49:22;20.10;99.90
47660;DHT22;33403;43.608;1.458;2023-07-08T04:51:48;20.10;99.90
47660;DHT22;33403;43.608;1.458;2023-07-08T04:54:14;20.10;99.90
47660;DHT22;33403;43.608;1.458;2023-07-08T04:56:40;20.20;99.90
47660;DHT22;33403;43.608;1.458;2023-07-08T04:59:11;20.20;99.90
47660;DHT22;33403;43.608;1.458;2023-07-08T05:01:39;20.20;99.90
47660;DHT22;33403;43.608;1.458;2023-07-08T05:04:05;20.20;99.90
47660;DHT22;33403;43.608;1.458;2023-07-08T05:06:32;20.20;99.90
47660;DHT22;33403;43.608;1.458;2023-07-08T05:09:01;20.20;99.90
47660;DHT22;33403;43.608;1.458;2023-07-08T05:11:28;20.20;99.90
47660;DHT22;33403;43.608;1.458;2023-07-08T05:13:54;20.20;99.90
47660;DHT22;33403;43.608;1.458;2023-07-08T05:16:20;20.30;99.90
47660;DHT22;33403;43.608;1.458;2023-07-08T05:18:46;20.30;99.90
47660;DHT22;33403;43.608;1.458;2023-07-08T05:21:11;20.30;99.90
47660;DHT22;33403;43.608;1.458;2023-07-08T05:23:37;20.30;99.90
47660;DHT22;33403;43.608;1.458;2023-07-08T05:26:04;20.30;99.90
47660;DHT22;33403;43.608;1.458;2023-07-08T05:28:31;20.30;99.90
47660;DHT22;33403;43.608;1.458;2023-07-08T05:30:57;20.30;99.90
47660;DHT22;33403;43.608;1.458;2023-07-08T05:33:24;20.40;99.90
47660;DHT22;33403;43.608;1.458;2023-07-08T05:35:50;20.50;99.90
47660;DHT22;33403;43.608;1.458;2023-07-08T05:38:16;20.50;99.90
47660;DHT22;33403;43.608;1.458;2023-07-08T05:40:41;20.50;99.90
47660;DHT22;33403;43.608;1.458;2023-07-08T05:43:07;20.50;99.90
47660;DHT22;33403;43.608;1.458;2023-07-08T05:45:33;20.60;99.90
47660;DHT22;33403;43.608;1.458;2023-07-08T05:48:00;20.60;99.90
47660;DHT22;33403;43.608;1.458;2023-07-08T05:50:26;20.70;99.90
47660;DHT22;33403;43.608;1.458;2023-07-08T05:52:51;20.70;99.90
47660;DHT22;33403;43.608;1.458;2023-07-08T05:55:17;20.70;99.90
47660;DHT22;33403;43.608;1.458;2023-07-08T05:57:43;20.80;99.90
47660;DHT22;33403;43.608;1.458;2023-07-08T06:00:09;20.80;99.90
47660;DHT22;33403;43.608;1.458;2023-07-08T06:02:36;20.80;99.90
47660;DHT22;33403;43.608;1.458;2023-07-08T06:05:02;20.90;99.90
47660;DHT22;33403;43.608;1.458;2023-07-08T06:07:27;20.90;99.90
47660;DHT22;33403;43.608;1.458;2023-07-08T06:09:53;21.00;99.90
47660;DHT22;33403;43.608;1.458;2023-07-08T06:12:21;21.00;99.90
47660;DHT22;33403;43.608;1.458;2023-07-08T06:14:47;21.10;99.90
47660;DHT22;33403;43.608;1.458;2023-07-08T06:17:13;21.10;99.90
47660;DHT22;33403;43.608;1.458;2023-07-08T06:19:38;21.20;99.90
47660;DHT22;33403;43.608;1.458;2023-07-08T06:22:04;21.30;99.90
47660;DHT22;33403;43.608;1.458;2023-07-08T06:24:30;21.30;99.90
47660;DHT22;33403;43.608;1.458;2023-07-08T06:26:55;21.30;99.90
47660;DHT22;33403;43.608;1.458;2023-07-08T06:29:21;21.40;99.90
47660;DHT22;33403;43.608;1.458;2023-07-08T06:31:47;21.60;99.90
47660;DHT22;33403;43.608;1.458;2023-07-08T06:34:12;21.70;99.90
47660;DHT22;33403;43.608;1.458;2023-07-08T06:36:38;21.90;99.90
47660;DHT22;33403;43.608;1.458;2023-07-08T06:39:03;22.10;99.90
47660;DHT22;33403;43.608;1.458;2023-07-08T06:41:32;22.10;99.90
47660;DHT22;33403;43.608;1.458;2023-07-08T06:43:58;22.10;99.90
47660;DHT22;33403;43.608;1.458;2023-07-08T06:46:24;22.00;99.90
47660;DHT22;33403;43.608;1.458;2023-07-08T06:48:50;22.00;99.90
47660;DHT22;33403;43.608;1.458;2023-07-08T06:51:16;21.90;99.90
47660;DHT22;33403;43.608;1.458;2023-07-08T06:53:41;21.90;99.90
47660;DHT22;33403;43.608;1.458;2023-07-08T06:56:07;22.00;99.90
47660;DHT22;33403;43.608;1.458;2023-07-08T06:58:33;22.00;99.90
47660;DHT22;33403;43.608;1.458;2023-07-08T07:00:59;22.10;99.90
47660;DHT22;33403;43.608;1.458;2023-07-08T07:03:25;22.20;99.90
47660;DHT22;33403;43.608;1.458;2023-07-08T07:05:51;22.40;99.90
47660;DHT22;33403;43.608;1.458;2023-07-08T07:08:16;22.50;99.90
47660;DHT22;33403;43.608;1.458;2023-07-08T07:10:42;22.70;99.90
47660;DHT22;33403;43.608;1.458;2023-07-08T07:13:08;22.80;99.90
47660;DHT22;33403;43.608;1.458;2023-07-08T07:15:33;23.00;99.90
47660;DHT22;33403;43.608;1.458;2023-07-08T07:17:59;23.10;99.90
47660;DHT22;33403;43.608;1.458;2023-07-08T07:20:26;23.10;99.90
47660;DHT22;33403;43.608;1.458;2023-07-08T07:22:52;23.10;99.90
47660;DHT22;33403;43.608;1.458;2023-07-08T07:25:18;23.10;99.90
47660;DHT22;33403;43.608;1.458;2023-07-08T07:27:44;23.10;99.90
47660;DHT22;33403;43.608;1.458;2023-07-08T07:30:10;23.20;99.90
47660;DHT22;33403;43.608;1.458;2023-07-08T07:32:41;23.30;99.90
47660;DHT22;33403;43.608;1.458;2023-07-08T07:35:08;23.30;99.90
47660;DHT22;33403;43.608;1.458;2023-07-08T07:37:38;23.30;99.90
47660;DHT22;33403;43.608;1.458;2023-07-08T07:40:09;23.40;99.90
47660;DHT22;33403;43.608;1.458;2023-07-08T07:42:43;23.50;99.90
47660;DHT22;33403;43.608;1.458;2023-07-08T07:45:09;23.70;99.90
47660;DHT22;33403;43.608;1.458;2023-07-08T07:47:35;23.90;99.90
47660;DHT22;33403;43.608;1.458;2023-07-08T07:50:03;23.90;99.90
47660;DHT22;33403;43.608;1.458;2023-07-08T07:52:29;24.10;99.90
47660;DHT22;33403;43.608;1.458;2023-07-08T07:54:55;24.10;99.90
47660;DHT22;33403;43.608;1.458;2023-07-08T07:57:22;24.30;99.90
47660;DHT22;33403;43.608;1.458;2023-07-08T07:59:48;24.40;99.90
47660;DHT22;33403;43.608;1.458;2023-07-08T08:02:15;24.40;99.90
47660;DHT22;33403;43.608;1.458;2023-07-08T08:04:40;24.50;99.90
47660;DHT22;33403;43.608;1.458;2023-07-08T08:07:06;24.60;99.90
47660;DHT22;33403;43.608;1.458;2023-07-08T08:09:32;24.70;99.90
47660;DHT22;33403;43.608;1.458;2023-07-08T08:11:57;24.90;99.90
47660;DHT22;33403;43.608;1.458;2023-07-08T08:14:23;25.00;99.90
47660;DHT22;33403;43.608;1.458;2023-07-08T08:16:49;25.10;99.90
47660;DHT22;33403;43.608;1.458;2023-07-08T08:19:14;25.10;99.90
47660;DHT22;33403;43.608;1.458;2023-07-08T08:21:40;25.20;99.90
47660;DHT22;33403;43.608;1.458;2023-07-08T08:24:06;25.30;99.90
47660;DHT22;33403;43.608;1.458;2023-07-08T08:26:31;25.20;99.90
47660;DHT22;33403;43.608;1.458;2023-07-08T08:28:57;25.30;99.90
47660;DHT22;33403;43.608;1.458;2023-07-08T08:31:23;25.30;99.90
47660;DHT22;33403;43.608;1.458;2023-07-08T08:33:50;25.40;99.90
47660;DHT22;33403;43.608;1.458;2023-07-08T08:36:16;25.40;99.90
47660;DHT22;33403;43.608;1.458;2023-07-08T08:38:42;25.40;99.90
47660;DHT22;33403;43.608;1.458;2023-07-08T08:41:16;25.40;99.90
47660;DHT22;33403;43.608;1.458;2023-07-08T08:43:43;25.50;99.90
47660;DHT22;33403;43.608;1.458;2023-07-08T08:51:49;25.80;99.90
47660;DHT22;33403;43.608;1.458;2023-07-08T08:54:15;25.90;99.90
47660;DHT22;33403;43.608;1.458;2023-07-08T09:01:49;26.10;99.90
47660;DHT22;33403;43.608;1.458;2023-07-08T09:04:25;26.20;99.90
47660;DHT22;33403;43.608;1.458;2023-07-08T09:07:00;26.30;99.90
47660;DHT22;33403;43.608;1.458;2023-07-08T09:09:36;26.40;99.90
47660;DHT22;33403;43.608;1.458;2023-07-08T09:12:06;26.50;99.90
47660;DHT22;33403;43.608;1.458;2023-07-08T09:14:37;26.50;99.90
47660;DHT22;33403;43.608;1.458;2023-07-08T09:23:21;26.70;99.90
47660;DHT22;33403;43.608;1.458;2023-07-08T09:25:57;26.80;99.90
47660;DHT22;33403;43.608;1.458;2023-07-08T09:28:39;26.80;99.90
47660;DHT22;33403;43.608;1.458;2023-07-08T09:31:07;27.00;99.90
47660;DHT22;33403;43.608;1.458;2023-07-08T09:33:33;27.10;99.90
47660;DHT22;33403;43.608;1.458;2023-07-08T09:35:59;27.10;99.90
47660;DHT22;33403;43.608;1.458;2023-07-08T09:38:26;27.20;99.90
47660;DHT22;33403;43.608;1.458;2023-07-08T09:40:52;27.30;99.90
47660;DHT22;33403;43.608;1.458;2023-07-08T09:43:34;27.30;99.90
47660;DHT22;33403;43.608;1.458;2023-07-08T09:46:01;27.50;99.90
47660;DHT22;33403;43.608;1.458;2023-07-08T09:48:29;27.60;99.90
47660;DHT22;33403;43.608;1.458;2023-07-08T09:50:57;27.70;99.90
47660;DHT22;33403;43.608;1.458;2023-07-08T09:53:23;27.80;99.90
47660;DHT22;33403;43.608;1.458;2023-07-08T09:55:50;27.90;99.90
47660;DHT22;33403;43.608;1.458;2023-07-08T09:58:36;28.00;99.90
47660;DHT22;33403;43.608;1.458;2023-07-08T10:01:11;28.00;99.90
47660;DHT22;33403;43.608;1.458;2023-07-08T10:03:38;28.10;99.90
47660;DHT22;33403;43.608;1.458;2023-07-08T10:06:20;28.20;99.90
47660;DHT22;33403;43.608;1.458;2023-07-08T10:08:46;28.20;99.90
47660;DHT22;33403;43.608;1.458;2023-07-08T10:11:31;28.30;99.90
47660;DHT22;33403;43.608;1.458;2023-07-08T10:14:04;28.30;99.90
47660;DHT22;33403;43.608;1.458;2023-07-08T10:16:33;28.30;99.90
47660;DHT22;33403;43.608;1.458;2023-07-08T10:18:59;28.40;99.90
47660;DHT22;33403;43.608;1.458;2023-07-08T10:22:04;28.30;99.90
47660;DHT22;33403;43.608;1.458;2023-07-08T10:25:15;28.30;99.90
47660;DHT22;33403;43.608;1.458;2023-07-08T10:36:08;28.70;99.90
47660;DHT22;33403;43.608;1.458;2023-07-08T10:38:49;28.50;99.90
47660;DHT22;33403;43.608;1.458;2023-07-08T10:44:27;28.60;99.90
47660;DHT22;33403;43.608;1.458;2023-07-08T10:55:50;28.80;99.90
47660;DHT22;33403;43.608;1.458;2023-07-08T11:01:17;28.80;99.90
47660;DHT22;33403;43.608;1.458;2023-07-08T11:04:17;28.80;99.90
47660;DHT22;33403;43.608;1.458;2023-07-08T11:07:09;28.90;99.90
47660;DHT22;33403;43.608;1.458;2023-07-08T11:09:48;29.00;99.90
47660;DHT22;33403;43.608;1.458;2023-07-08T11:15:21;29.00;99.90
47660;DHT22;33403;43.608;1.458;2023-07-08T11:18:13;29.00;99.90
47660;DHT22;33403;43.608;1.458;2023-07-08T11:20:44;29.00;99.90
47660;DHT22;33403;43.608;1.458;2023-07-08T11:23:38;29.20;99.90
47660;DHT22;33403;43.608;1.458;2023-07-08T11:26:29;29.20;99.90
47660;DHT22;33403;43.608;1.458;2023-07-08T11:29:00;29.20;99.90
47660;DHT22;33403;43.608;1.458;2023-07-08T11:31:28;29.20;99.90
47660;DHT22;33403;43.608;1.458;2023-07-08T11:33:57;29.00;99.90
47660;DHT22;33403;43.608;1.458;2023-07-08T11:36:24;29.20;99.90
47660;DHT22;33403;43.608;1.458;2023-07-08T11:38:53;29.30;99.90
47660;DHT22;33403;43.608;1.458;2023-07-08T11:41:22;29.30;99.90
47660;DHT22;33403;43.608;1.458;2023-07-08T11:43:57;29.30;99.90
47660;DHT22;33403;43.608;1.458;2023-07-08T11:46:26;29.20;99.90
47660;DHT22;33403;43.608;1.458;2023-07-08T11:48:55;29.30;99.90
47660;DHT22;33403;43.608;1.458;2023-07-08T11:51:37;29.30;99.90
47660;DHT22;33403;43.608;1.458;2023-07-08T11:54:29;29.30;99.90
47660;DHT22;33403;43.608;1.458;2023-07-08T11:59:36;29.30;99.90
47660;DHT22;33403;43.608;1.458;2023-07-08T12:02:10;29.20;99.90
47660;DHT22;33403;43.608;1.458;2023-07-08T12:04:56;29.20;99.90
47660;DHT22;33403;43.608;1.458;2023-07-08T12:07:47;29.20;99.90
47660;DHT22;33403;43.608;1.458;2023-07-08T12:10:22;29.30;99.90
47660;DHT22;33403;43.608;1.458;2023-07-08T12:12:49;29.20;99.90
47660;DHT22;33403;43.608;1.458;2023-07-08T12:17:43;29.30;99.90
47660;DHT22;33403;43.608;1.458;2023-07-08T12:20:22;29.30;99.90
47660;DHT22;33403;43.608;1.458;2023-07-08T12:22:49;29.20;99.90
47660;DHT22;33403;43.608;1.458;2023-07-08T12:25:18;29.10;99.90
47660;DHT22;33403;43.608;1.458;2023-07-08T12:27:45;29.10;99.90
47660;DHT22;33403;43.608;1.458;2023-07-08T12:30:13;29.20;99.90
47660;DHT22;33403;43.608;1.458;2023-07-08T12:32:43;29.40;99.90
47660;DHT22;33403;43.608;1.458;2023-07-08T12:35:30;29.60;99.90
47660;DHT22;33403;43.608;1.458;2023-07-08T12:38:00;29.50;99.90
47660;DHT22;33403;43.608;1.458;2023-07-08T12:40:28;29.40;99.90
47660;DHT22;33403;43.608;1.458;2023-07-08T12:42:57;29.50;99.90
47660;DHT22;33403;43.608;1.458;2023-07-08T12:45:28;29.50;99.90
47660;DHT22;33403;43.608;1.458;2023-07-08T12:47:55;29.40;99.90
47660;DHT22;33403;43.608;1.458;2023-07-08T12:50:20;29.40;99.90
47660;DHT22;33403;43.608;1.458;2023-07-08T12:52:47;29.50;99.90
47660;DHT22;33403;43.608;1.458;2023-07-08T12:55:14;29.60;99.90
47660;DHT22;33403;43.608;1.458;2023-07-08T12:57:42;29.60;99.90
47660;DHT22;33403;43.608;1.458;2023-07-08T13:00:30;29.70;99.90
47660;DHT22;33403;43.608;1.458;2023-07-08T13:03:02;29.70;99.90
47660;DHT22;33403;43.608;1.458;2023-07-08T13:05:29;29.70;99.90
47660;DHT22;33403;43.608;1.458;2023-07-08T13:07:55;29.80;99.90
47660;DHT22;33403;43.608;1.458;2023-07-08T13:10:23;29.70;99.90
47660;DHT22;33403;43.608;1.458;2023-07-08T13:13:02;29.70;99.90
47660;DHT22;33403;43.608;1.458;2023-07-08T13:15:36;29.70;99.90
47660;DHT22;33403;43.608;1.458;2023-07-08T13:18:03;29.90;99.90
47660;DHT22;33403;43.608;1.458;2023-07-08T13:20:29;29.70;99.90
47660;DHT22;33403;43.608;1.458;2023-07-08T13:22:59;29.60;99.90
47660;DHT22;33403;43.608;1.458;2023-07-08T13:25:30;29.60;99.90
47660;DHT22;33403;43.608;1.458;2023-07-08T13:30:53;29.80;99.90
47660;DHT22;33403;43.608;1.458;2023-07-08T13:33:20;29.80;99.90
47660;DHT22;33403;43.608;1.458;2023-07-08T13:35:46;29.80;99.90
47660;DHT22;33403;43.608;1.458;2023-07-08T13:38:17;29.70;99.90
47660;DHT22;33403;43.608;1.458;2023-07-08T13:40:48;29.60;99.90
47660;DHT22;33403;43.608;1.458;2023-07-08T13:43:15;29.90;99.90
47660;DHT22;33403;43.608;1.458;2023-07-08T13:45:45;29.70;99.90
47660;DHT22;33403;43.608;1.458;2023-07-08T13:51:15;29.80;99.90
47660;DHT22;33403;43.608;1.458;2023-07-08T13:53:45;29.70;99.90
47660;DHT22;33403;43.608;1.458;2023-07-08T13:56:20;29.80;99.90
47660;DHT22;33403;43.608;1.458;2023-07-08T13:58:48;29.70;99.90
47660;DHT22;33403;43.608;1.458;2023-07-08T14:01:23;29.90;99.90
47660;DHT22;33403;43.608;1.458;2023-07-08T14:03:51;29.90;99.90
47660;DHT22;33403;43.608;1.458;2023-07-08T14:06:20;29.90;99.90
47660;DHT22;33403;43.608;1.458;2023-07-08T14:08:46;30.00;99.60
47660;DHT22;33403;43.608;1.458;2023-07-08T14:11:11;30.00;99.90
47660;DHT22;33403;43.608;1.458;2023-07-08T14:13:38;29.80;99.90
47660;DHT22;33403;43.608;1.458;2023-07-08T14:16:10;29.80;99.60
47660;DHT22;33403;43.608;1.458;2023-07-08T14:18:39;29.80;99.90
47660;DHT22;33403;43.608;1.458;2023-07-08T14:21:06;29.80;99.40
47660;DHT22;33403;43.608;1.458;2023-07-08T14:23:32;29.70;99.50
47660;DHT22;33403;43.608;1.458;2023-07-08T14:25:57;29.70;99.90
47660;DHT22;33403;43.608;1.458;2023-07-08T14:28:23;29.80;98.60
47660;DHT22;33403;43.608;1.458;2023-07-08T14:30:49;29.90;98.70
47660;DHT22;33403;43.608;1.458;2023-07-08T14:33:14;30.00;97.80
47660;DHT22;33403;43.608;1.458;2023-07-08T14:35:40;29.90;98.00
47660;DHT22;33403;43.608;1.458;2023-07-08T14:38:12;29.90;98.10
47660;DHT22;33403;43.608;1.458;2023-07-08T14:40:40;30.00;96.50
47660;DHT22;33403;43.608;1.458;2023-07-08T14:43:29;29.90;97.60
47660;DHT22;33403;43.608;1.458;2023-07-08T14:46:04;29.80;97.80
47660;DHT22;33403;43.608;1.458;2023-07-08T14:48:31;29.90;97.70
47660;DHT22;33403;43.608;1.458;2023-07-08T14:50:58;29.90;97.80
47660;DHT22;33403;43.608;1.458;2023-07-08T14:53:24;29.70;98.20
47660;DHT22;33403;43.608;1.458;2023-07-08T14:55:52;29.70;97.90
47660;DHT22;33403;43.608;1.458;2023-07-08T14:58:22;29.90;96.00
47660;DHT22;33403;43.608;1.458;2023-07-08T15:00:49;29.90;96.80
47660;DHT22;33403;43.608;1.458;2023-07-08T15:03:15;29.90;97.40
47660;DHT22;33403;43.608;1.458;2023-07-08T15:05:41;29.90;97.40
47660;DHT22;33403;43.608;1.458;2023-07-08T15:08:07;30.00;96.90
47660;DHT22;33403;43.608;1.458;2023-07-08T15:10:33;30.00;96.80
47660;DHT22;33403;43.608;1.458;2023-07-08T15:13:00;30.10;96.10
47660;DHT22;33403;43.608;1.458;2023-07-08T15:15:30;30.10;95.60
47660;DHT22;33403;43.608;1.458;2023-07-08T15:18:00;30.10;95.90
47660;DHT22;33403;43.608;1.458;2023-07-08T15:20:27;30.10;95.50
47660;DHT22;33403;43.608;1.458;2023-07-08T15:22:53;30.00;95.50
47660;DHT22;33403;43.608;1.458;2023-07-08T15:25:19;29.90;96.30
47660;DHT22;33403;43.608;1.458;2023-07-08T15:27:52;30.00;96.00
47660;DHT22;33403;43.608;1.458;2023-07-08T15:30:24;30.10;95.80
47660;DHT22;33403;43.608;1.458;2023-07-08T15:32:50;30.00;96.80
47660;DHT22;33403;43.608;1.458;2023-07-08T15:35:22;30.10;95.40
47660;DHT22;33403;43.608;1.458;2023-07-08T15:37:50;30.00;95.80
47660;DHT22;33403;43.608;1.458;2023-07-08T15:40:18;30.00;96.10
47660;DHT22;33403;43.608;1.458;2023-07-08T15:42:46;30.00;95.70
47660;DHT22;33403;43.608;1.458;2023-07-08T15:45:22;29.90;96.40
47660;DHT22;33403;43.608;1.458;2023-07-08T15:47:48;29.80;97.50
47660;DHT22;33403;43.608;1.458;2023-07-08T15:50:16;29.80;96.50
47660;DHT22;33403;43.608;1.458;2023-07-08T15:52:42;29.90;96.90
47660;DHT22;33403;43.608;1.458;2023-07-08T15:55:10;29.90;96.40
47660;DHT22;33403;43.608;1.458;2023-07-08T15:57:47;29.80;96.50
47660;DHT22;33403;43.608;1.458;2023-07-08T16:00:23;29.80;97.00
47660;DHT22;33403;43.608;1.458;2023-07-08T16:02:52;29.80;96.20
47660;DHT22;33403;43.608;1.458;2023-07-08T16:05:19;29.90;96.30
47660;DHT22;33403;43.608;1.458;2023-07-08T16:07:50;29.80;97.20
47660;DHT22;33403;43.608;1.458;2023-07-08T16:10:17;30.00;96.10
47660;DHT22;33403;43.608;1.458;2023-07-08T16:12:44;29.90;96.50
47660;DHT22;33403;43.608;1.458;2023-07-08T16:15:19;29.80;97.40
47660;DHT22;33403;43.608;1.458;2023-07-08T16:17:45;29.80;95.90
47660;DHT22;33403;43.608;1.458;2023-07-08T16:20:20;29.80;95.90
47660;DHT22;33403;43.608;1.458;2023-07-08T16:22:46;29.70;95.40
47660;DHT22;33403;43.608;1.458;2023-07-08T16:25:25;29.70;96.00
47660;DHT22;33403;43.608;1.458;2023-07-08T16:27:52;29.60;96.10
47660;DHT22;33403;43.608;1.458;2023-07-08T16:30:19;29.60;96.20
47660;DHT22;33403;43.608;1.458;2023-07-08T16:32:46;29.70;96.30
47660;DHT22;33403;43.608;1.458;2023-07-08T16:35:18;29.70;96.00